Time;durP1;ratioP1;P1;durP2;ratioP2;P2;SDS_P1;SDS_P2;PMS_P1;PMS_P2;Temp;Humidity;BMP_temperature;BMP_pressure;BME280_temperature;BME280_humidity;BME280_pressure;Samples;Min_cycle;Max_cycle;Signal;HPM_P1;HPM_P2
2023/05/15 00:00:09;;;;;;;5.72;4.88;;;19.20;65.00;;;;;;5032239;28;20080;-81
2023/05/15 00:02:38;;;;;;;5.53;4.70;;;19.10;65.00;;;;;;5017235;28;20030;-81
2023/05/15 00:05:06;;;;;;;4.85;4.35;;;19.10;65.00;;;;;;5015811;28;20426;-82
2023/05/15 00:07:32;;;;;;;5.93;4.68;;;19.10;65.10;;;;;;5015871;28;20026;-81
2023/05/15 00:09:58;;;;;;;5.05;4.55;;;19.00;65.00;;;;;;5016880;28;20044;-81
2023/05/15 00:12:24;;;;;;;5.63;4.57;;;19.00;65.10;;;;;;4999145;28;20382;-81
2023/05/15 00:14:50;;;;;;;6.10;5.00;;;19.00;65.10;;;;;;5015565;28;20045;-81
2023/05/15 00:17:15;;;;;;;6.07;5.38;;;18.90;65.10;;;;;;5031702;28;20029;-81
2023/05/15 00:19:41;;;;;;;5.78;4.93;;;18.90;65.20;;;;;;5015536;28;20438;-81
2023/05/15 00:22:07;;;;;;;5.20;4.53;;;18.90;65.20;;;;;;5032486;28;20351;-81
2023/05/15 00:24:33;;;;;;;6.25;5.07;;;18.80;65.20;;;;;;5015820;28;20029;-82
2023/05/15 00:27:00;;;;;;;5.50;4.78;;;18.80;65.20;;;;;;5016687;28;20466;-81
2023/05/15 00:29:26;;;;;;;5.72;4.72;;;18.80;65.30;;;;;;5015894;28;20091;-81
2023/05/15 00:31:52;;;;;;;5.53;4.85;;;18.70;65.30;;;;;;5015529;28;20041;-81
2023/05/15 00:34:18;;;;;;;6.03;5.18;;;18.70;65.30;;;;;;4999568;28;20136;-81
2023/05/15 00:36:44;;;;;;;5.38;4.63;;;18.70;65.30;;;;;;5031510;28;20022;-81
2023/05/15 00:39:10;;;;;;;6.38;4.78;;;18.60;65.30;;;;;;5016491;28;20106;-81
2023/05/15 00:41:37;;;;;;;5.82;5.22;;;18.70;65.40;;;;;;4982475;28;20045;-81
2023/05/15 00:44:05;;;;;;;5.80;5.20;;;18.60;65.30;;;;;;5016681;28;20050;-81
2023/05/15 00:46:32;;;;;;;6.45;5.20;;;18.60;65.40;;;;;;5048017;28;20034;-81
2023/05/15 00:48:59;;;;;;;5.85;4.80;;;18.50;65.40;;;;;;4998841;28;20034;-81
2023/05/15 00:51:26;;;;;;;5.55;4.93;;;18.50;65.40;;;;;;5014614;28;20022;-81
2023/05/15 00:53:53;;;;;;;6.50;5.68;;;18.50;65.40;;;;;;4998578;28;20151;-81
2023/05/15 00:56:20;;;;;;;6.10;4.90;;;18.50;65.50;;;;;;5031260;28;20045;-81
2023/05/15 00:58:47;;;;;;;5.60;4.90;;;18.40;65.40;;;;;;5047916;28;20037;-82
2023/05/15 01:01:15;;;;;;;5.70;4.82;;;18.40;65.50;;;;;;5031116;28;20061;-81
2023/05/15 01:03:41;;;;;;;6.05;5.38;;;18.30;65.50;;;;;;5014718;28;20040;-82
2023/05/15 01:06:07;;;;;;;6.40;5.07;;;18.30;65.50;;;;;;4998419;28;20030;-82
2023/05/15 01:08:44;;;;;;;6.10;5.30;;;18.30;65.50;;;;;;5013806;28;20117;-81
2023/05/15 01:11:12;;;;;;;6.13;5.00;;;18.20;65.50;;;;;;5037959;28;20520;-81
2023/05/15 01:13:38;;;;;;;6.97;5.22;;;18.20;65.50;;;;;;5054596;28;20018;-81
2023/05/15 01:16:05;;;;;;;6.25;5.35;;;18.20;65.60;;;;;;5022346;28;20386;-81
2023/05/15 01:18:31;;;;;;;5.75;5.05;;;18.20;65.60;;;;;;5037025;28;20022;-81
2023/05/15 01:21:08;;;;;;;6.72;5.30;;;18.10;65.60;;;;;;5014921;28;20042;-81
2023/05/15 01:23:56;;;;;;;5.90;5.00;;;18.10;65.60;;;;;;5048324;28;20351;-81
2023/05/15 01:26:46;;;;;;;6.25;5.18;;;18.10;65.70;;;;;;5047312;28;20029;-81
2023/05/15 01:29:36;;;;;;;5.82;4.70;;;18.00;65.60;;;;;;5047494;28;20030;-81
2023/05/15 01:32:08;;;;;;;5.80;5.07;;;18.00;65.70;;;;;;5013925;28;20038;-81
2023/05/15 01:34:51;;;;;;;5.90;4.93;;;18.00;65.70;;;;;;5015297;28;20026;-81
2023/05/15 01:37:23;;;;;;;5.68;5.05;;;17.90;65.70;;;;;;5015105;28;20026;-81
2023/05/15 01:39:54;;;;;;;5.97;4.72;;;17.90;65.80;;;;;;5030519;28;20042;-81
2023/05/15 01:42:29;;;;;;;5.85;4.95;;;17.80;65.70;;;;;;5030516;28;20124;-82
2023/05/15 01:44:55;;;;;;;;;;;17.80;65.80;;;;;;5015750;28;20060;-81
2023/05/15 01:47:39;;;;;;;5.60;4.38;;;17.70;65.80;;;;;;5030103;28;19913;-81
2023/05/15 01:50:08;;;;;;;5.03;4.50;;;17.70;65.80;;;;;;5030426;28;20034;-80
2023/05/15 01:52:39;;;;;;;6.25;5.00;;;17.70;65.90;;;;;;5015935;28;20472;-81
2023/05/15 01:55:07;;;;;;;5.63;4.93;;;17.60;65.90;;;;;;5029677;28;20109;-81
2023/05/15 01:57:34;;;;;;;6.68;5.22;;;17.60;66.00;;;;;;5012689;28;20467;-81
2023/05/15 02:00:01;;;;;;;5.93;4.97;;;17.60;66.00;;;;;;4981152;28;20034;-81
2023/05/15 02:02:30;;;;;;;6.50;5.25;;;17.50;66.10;;;;;;5030039;28;20033;-81
2023/05/15 02:04:56;;;;;;;7.65;5.78;;;17.50;66.10;;;;;;5029879;28;20030;-81
2023/05/15 02:07:22;;;;;;;5.90;5.15;;;17.50;66.20;;;;;;4980905;28;20048;-82
2023/05/15 02:09:50;;;;;;;5.75;5.13;;;17.40;66.10;;;;;;5014536;28;20033;-81
2023/05/15 02:12:18;;;;;;;5.63;5.00;;;17.40;66.20;;;;;;5013336;28;20129;-81
2023/05/15 02:14:45;;;;;;;6.22;5.00;;;17.40;66.20;;;;;;5029678;28;20058;-81
2023/05/15 02:17:11;;;;;;;5.57;4.80;;;17.40;66.20;;;;;;4997103;28;20034;-81
2023/05/15 02:19:37;;;;;;;7.20;5.50;;;17.40;66.20;;;;;;5046194;28;20481;-81
2023/05/15 02:22:03;;;;;;;6.78;5.72;;;17.30;66.20;;;;;;5046072;28;20034;-81
2023/05/15 02:24:29;;;;;;;5.97;4.95;;;17.30;66.20;;;;;;5029520;28;20116;-81
2023/05/15 02:27:23;;;;;;;5.45;4.72;;;17.20;66.20;;;;;;5013335;28;20032;-81
2023/05/15 02:30:07;;;;;;;6.28;5.15;;;17.20;66.30;;;;;;5046317;28;20442;-82
2023/05/15 02:32:41;;;;;;;6.00;5.20;;;17.20;66.30;;;;;;4997425;28;20044;-81
2023/05/15 02:35:36;;;;;;;5.78;4.90;;;17.20;66.30;;;;;;5013050;28;20029;-81
2023/05/15 02:38:10;;;;;;;5.45;4.53;;;17.10;66.40;;;;;;5013000;28;20065;-81
2023/05/15 02:40:38;;;;;;;5.73;4.73;;;17.10;66.40;;;;;;5014318;28;20474;-81
2023/05/15 02:43:06;;;;;;;5.50;4.72;;;17.10;66.40;;;;;;5046560;28;20120;-81
2023/05/15 02:45:33;;;;;;;5.63;4.65;;;17.00;66.40;;;;;;5029247;28;20054;-81
2023/05/15 02:48:00;;;;;;;5.65;4.90;;;17.00;67.10;;;;;;4996440;28;20033;-82
2023/05/15 02:50:26;;;;;;;5.53;4.72;;;17.00;66.50;;;;;;5012762;28;20049;-81
2023/05/15 02:53:04;;;;;;;6.50;5.38;;;17.00;66.50;;;;;;5029131;28;20125;-81
2023/05/15 02:55:30;;;;;;;6.53;4.80;;;17.00;66.60;;;;;;5029343;28;20030;-81
2023/05/15 02:57:56;;;;;;;5.85;4.95;;;16.90;66.60;;;;;;5029117;28;20044;-81
2023/05/15 03:00:22;;;;;;;5.93;5.00;;;16.90;66.60;;;;;;5028991;28;20046;-81
2023/05/15 03:02:48;;;;;;;6.40;5.63;;;16.90;66.60;;;;;;4996357;28;20474;-81
2023/05/15 03:05:14;;;;;;;5.97;5.28;;;16.90;66.70;;;;;;4996565;28;20084;-81
2023/05/15 03:07:42;;;;;;;5.85;5.20;;;16.80;66.60;;;;;;4996166;28;20431;-81
2023/05/15 03:10:08;;;;;;;5.90;5.03;;;16.80;66.60;;;;;;5013251;28;20034;-80
2023/05/15 03:12:34;;;;;;;6.13;5.00;;;16.70;66.60;;;;;;4996064;28;20385;-81
2023/05/15 03:15:00;;;;;;;6.18;5.30;;;16.80;66.70;;;;;;4996406;28;20112;-81
2023/05/15 03:17:26;;;;;;;6.45;5.10;;;16.70;66.70;;;;;;5012650;28;20034;-80
2023/05/15 03:19:52;;;;;;;6.03;5.22;;;16.70;66.70;;;;;;5013233;28;20680;-81
2023/05/15 03:22:18;;;;;;;6.05;5.45;;;16.70;66.70;;;;;;5028907;28;20033;-80
2023/05/15 03:24:44;;;;;;;6.20;5.22;;;16.60;66.70;;;;;;4996553;28;20121;-81
2023/05/15 03:27:10;;;;;;;5.95;5.28;;;16.60;66.80;;;;;;4996608;28;20517;-81
2023/05/15 03:29:36;;;;;;;8.95;5.82;;;16.60;66.80;;;;;;5012262;28;20038;-81
2023/05/15 03:32:01;;;;;;;6.45;5.38;;;16.60;66.80;;;;;;4982354;28;20058;-81
2023/05/15 03:34:27;;;;;;;6.82;5.78;;;16.60;66.90;;;;;;4999798;28;20092;-80
2023/05/15 03:36:53;;;;;;;6.60;5.40;;;16.50;66.80;;;;;;4999919;28;20037;-80
2023/05/15 03:39:19;;;;;;;6.45;5.68;;;16.50;66.80;;;;;;5016155;28;20061;-80
2023/05/15 03:41:44;;;;;;;6.88;5.63;;;16.50;66.90;;;;;;4999572;28;20157;-80
2023/05/15 03:44:10;;;;;;;7.10;5.68;;;16.50;66.90;;;;;;5015782;28;20054;-81
2023/05/15 03:46:38;;;;;;;7.65;5.90;;;16.50;67.00;;;;;;5000072;28;20121;-80
2023/05/15 03:49:04;;;;;;;6.82;6.13;;;16.50;67.00;;;;;;4999608;28;20125;-81
2023/05/15 03:51:32;;;;;;;7.07;6.00;;;16.40;67.00;;;;;;5015986;28;20042;-81
2023/05/15 03:53:58;;;;;;;7.03;6.18;;;16.40;67.00;;;;;;5000653;28;20033;-80
2023/05/15 03:56:24;;;;;;;7.30;6.15;;;16.40;67.10;;;;;;5002023;28;20452;-80
2023/05/15 03:58:49;;;;;;;8.07;6.00;;;16.40;67.10;;;;;;5005623;28;20037;-81
2023/05/15 04:01:16;;;;;;;7.28;6.03;;;16.40;67.10;;;;;;5022499;28;20041;-81
2023/05/15 04:03:42;;;;;;;7.68;6.18;;;16.30;67.10;;;;;;5022062;28;20022;-81
2023/05/15 04:06:07;;;;;;;8.57;6.35;;;16.40;67.20;;;;;;5003002;28;20093;-81
2023/05/15 04:08:33;;;;;;;7.90;6.40;;;16.40;67.30;;;;;;5000666;28;20037;-81
2023/05/15 04:10:59;;;;;;;7.57;6.50;;;16.30;67.30;;;;;;5018232;28;20133;-81
2023/05/15 04:13:24;;;;;;;7.90;6.55;;;16.30;67.30;;;;;;5017016;28;20026;-81
2023/05/15 04:15:50;;;;;;;8.15;6.30;;;16.30;67.30;;;;;;5016056;28;20414;-81
2023/05/15 04:18:16;;;;;;;8.68;7.10;;;16.30;67.40;;;;;;5015592;28;20399;-81
2023/05/15 04:20:41;;;;;;;8.40;6.90;;;16.30;67.40;;;;;;4999074;28;20076;-81
2023/05/15 04:23:07;;;;;;;8.88;7.30;;;16.30;67.40;;;;;;4999198;28;20033;-81
2023/05/15 04:25:33;;;;;;;8.50;7.30;;;16.30;67.40;;;;;;4982560;28;20030;-80
2023/05/15 04:27:59;;;;;;;8.93;7.43;;;16.30;67.50;;;;;;5015753;28;20030;-83
2023/05/15 04:30:25;;;;;;;8.07;6.85;;;16.30;67.50;;;;;;4999649;28;20078;-80
2023/05/15 04:32:51;;;;;;;8.68;7.00;;;16.30;67.50;;;;;;4998930;28;20037;-79
2023/05/15 04:35:17;;;;;;;8.80;7.22;;;16.20;67.50;;;;;;5048173;28;20033;-79
2023/05/15 04:37:46;;;;;;;9.52;7.90;;;16.20;67.50;;;;;;5015016;28;20109;-79
2023/05/15 04:40:15;;;;;;;8.55;7.20;;;16.20;67.60;;;;;;5015351;28;20042;-79
2023/05/15 04:42:41;;;;;;;8.38;7.20;;;16.20;67.60;;;;;;5030074;28;20536;-79
2023/05/15 04:45:08;;;;;;;8.63;7.57;;;16.20;67.60;;;;;;5014343;28;20054;-79
2023/05/15 04:47:34;;;;;;;8.85;7.78;;;16.10;67.60;;;;;;4998648;28;20034;-79
2023/05/15 04:50:00;;;;;;;9.60;7.65;;;16.20;67.70;;;;;;4998654;28;20038;-78
2023/05/15 04:52:25;;;;;;;9.45;8.00;;;16.10;67.70;;;;;;5016329;28;20214;-79
2023/05/15 04:54:52;;;;;;;8.55;7.53;;;16.10;67.70;;;;;;5014441;28;20049;-79
2023/05/15 04:57:18;;;;;;;9.48;7.88;;;16.10;67.70;;;;;;4998328;28;20030;-79
2023/05/15 04:59:43;;;;;;;8.85;7.80;;;16.10;67.70;;;;;;5014843;28;20037;-79
2023/05/15 05:02:09;;;;;;;9.45;7.68;;;16.10;67.70;;;;;;5014368;28;20092;-79
2023/05/15 05:04:35;;;;;;;8.52;7.15;;;16.10;67.70;;;;;;5030876;28;20030;-79
2023/05/15 05:07:04;;;;;;;8.93;7.75;;;16.10;67.70;;;;;;5014147;28;20076;-78
2023/05/15 05:09:30;;;;;;;9.30;7.18;;;16.10;67.80;;;;;;4998098;28;20030;-78
2023/05/15 05:11:58;;;;;;;8.70;7.20;;;16.10;67.80;;;;;;4998187;28;20045;-78
2023/05/15 05:14:25;;;;;;;8.57;7.28;;;16.10;67.80;;;;;;5030467;28;20022;-78
2023/05/15 05:16:51;;;;;;;9.43;7.35;;;16.00;67.80;;;;;;5014587;28;20036;-78
2023/05/15 05:19:17;;;;;;;9.25;7.93;;;16.00;67.80;;;;;;5014609;28;20030;-79
2023/05/15 05:21:42;;;;;;;8.98;7.63;;;16.10;67.90;;;;;;4997704;28;20050;-77
2023/05/15 05:24:08;;;;;;;8.85;7.25;;;16.00;67.90;;;;;;4997586;28;20026;-79
2023/05/15 05:26:34;;;;;;;8.52;6.95;;;16.00;67.90;;;;;;5014588;28;20038;-77
2023/05/15 05:29:00;;;;;;;8.95;7.80;;;16.10;68.00;;;;;;5013903;28;20061;-77
2023/05/15 05:31:25;;;;;;;8.68;7.60;;;16.00;68.00;;;;;;5014287;28;20079;-77
2023/05/15 05:33:51;;;;;;;9.00;7.45;;;16.00;68.00;;;;;;5015409;28;20026;-77
2023/05/15 05:36:17;;;;;;;11.27;7.85;;;16.00;68.00;;;;;;5014268;28;20025;-77
2023/05/15 05:38:43;;;;;;;8.30;7.30;;;16.00;68.00;;;;;;5046536;28;20132;-78
2023/05/15 05:41:09;;;;;;;8.88;7.45;;;16.00;68.00;;;;;;4997426;28;20141;-78
2023/05/15 05:43:34;;;;;;;9.35;7.82;;;16.00;68.00;;;;;;4997706;28;20033;-77
2023/05/15 05:46:01;;;;;;;8.98;7.65;;;16.00;68.00;;;;;;5046300;28;20566;-77
2023/05/15 05:48:27;;;;;;;9.23;8.05;;;16.00;68.10;;;;;;5030374;28;20471;-77
2023/05/15 05:50:53;;;;;;;8.55;7.07;;;16.00;68.10;;;;;;5014011;28;20037;-77
2023/05/15 05:53:18;;;;;;;9.55;7.88;;;16.00;68.10;;;;;;4997351;28;20458;-77
2023/05/15 05:55:44;;;;;;;8.15;7.13;;;16.00;68.10;;;;;;5014828;28;20101;-77
2023/05/15 05:58:10;;;;;;;8.48;7.25;;;16.00;68.10;;;;;;5030096;28;20037;-77
2023/05/15 06:00:36;;;;;;;9.13;8.10;;;16.00;68.10;;;;;;4997025;28;20034;-77
2023/05/15 06:03:02;;;;;;;8.90;7.90;;;16.00;68.10;;;;;;5013250;28;20202;-78
2023/05/15 06:05:28;;;;;;;8.73;7.35;;;16.00;68.10;;;;;;4997086;28;20018;-77
2023/05/15 06:07:54;;;;;;;8.60;7.18;;;16.00;68.10;;;;;;5013910;28;20092;-79
2023/05/15 06:10:20;;;;;;;9.43;7.82;;;16.00;68.10;;;;;;5013041;28;20080;-77
2023/05/15 06:12:47;;;;;;;8.93;8.00;;;16.00;68.10;;;;;;5014170;28;20122;-78
2023/05/15 06:15:13;;;;;;;9.20;7.93;;;16.00;68.10;;;;;;5013272;28;20053;-77
2023/05/15 06:17:39;;;;;;;9.15;7.35;;;16.00;68.10;;;;;;5013238;28;20033;-77
2023/05/15 06:20:07;;;;;;;9.00;7.82;;;16.00;68.20;;;;;;5013186;28;20032;-77
2023/05/15 06:22:33;;;;;;;9.05;7.75;;;16.00;68.20;;;;;;5045846;28;20034;-77
2023/05/15 06:24:58;;;;;;;8.25;6.85;;;16.00;68.20;;;;;;5014102;28;20040;-77
2023/05/15 06:27:28;;;;;;;8.77;7.65;;;16.10;68.20;;;;;;5012879;28;20363;-77
2023/05/15 06:29:54;;;;;;;8.13;7.30;;;16.10;68.30;;;;;;5013298;28;20384;-77
2023/05/15 06:32:20;;;;;;;8.32;7.18;;;16.10;68.20;;;;;;5013333;28;20352;-77
2023/05/15 06:34:45;;;;;;;9.20;7.75;;;16.00;68.20;;;;;;4996433;28;20149;-77
2023/05/15 06:37:11;;;;;;;8.50;7.05;;;16.10;68.20;;;;;;4996612;28;20029;-76
2023/05/15 06:39:37;;;;;;;8.57;7.68;;;16.10;68.20;;;;;;5013080;28;20386;-77
2023/05/15 06:42:03;;;;;;;8.50;7.28;;;16.10;68.20;;;;;;5012589;28;20048;-77
2023/05/15 06:44:32;;;;;;;8.20;6.97;;;16.10;68.20;;;;;;5012778;28;20054;-77
2023/05/15 06:46:58;;;;;;;8.70;7.78;;;16.10;68.30;;;;;;4997638;28;20033;-78
2023/05/15 06:49:24;;;;;;;8.82;7.65;;;16.20;68.30;;;;;;5013076;28;20096;-78
2023/05/15 06:51:50;;;;;;;8.90;7.55;;;16.10;68.20;;;;;;5012539;28;20517;-77
2023/05/15 06:54:17;;;;;;;8.50;7.05;;;16.10;68.20;;;;;;5012321;28;20036;-77
2023/05/15 06:56:42;;;;;;;8.25;7.40;;;16.10;68.20;;;;;;5012633;28;20030;-78
2023/05/15 06:59:08;;;;;;;8.68;7.40;;;16.20;68.20;;;;;;5012948;28;20034;-77
2023/05/15 07:01:34;;;;;;;8.57;7.47;;;16.20;68.30;;;;;;4996154;28;20096;-77
2023/05/15 07:04:00;;;;;;;8.25;7.05;;;16.20;68.20;;;;;;5013078;28;20084;-77
2023/05/15 07:06:25;;;;;;;8.85;7.28;;;16.20;68.30;;;;;;5012774;28;20029;-77
2023/05/15 07:08:51;;;;;;;8.40;7.10;;;16.20;68.20;;;;;;5046109;28;20034;-77
2023/05/15 07:11:17;;;;;;;8.50;7.38;;;16.20;68.20;;;;;;4996091;28;20026;-77
2023/05/15 07:13:43;;;;;;;8.00;7.20;;;16.20;68.20;;;;;;5012459;28;20410;-78
2023/05/15 07:16:08;;;;;;;8.57;7.47;;;16.20;68.10;;;;;;5029234;28;20427;-77
2023/05/15 07:18:34;;;;;;;8.40;7.43;;;16.20;68.20;;;;;;5013374;28;20498;-77
2023/05/15 07:21:00;;;;;;;8.65;7.22;;;16.30;68.20;;;;;;4995933;28;20045;-77
2023/05/15 07:23:26;;;;;;;8.73;6.90;;;16.30;68.20;;;;;;5045628;28;20030;-78
2023/05/15 07:25:53;;;;;;;8.15;7.20;;;16.30;68.20;;;;;;5012175;28;20045;-77
2023/05/15 07:28:19;;;;;;;8.32;6.68;;;16.30;68.20;;;;;;5045376;28;20087;-77
2023/05/15 07:30:45;;;;;;;7.95;6.97;;;16.30;68.20;;;;;;5013487;28;20120;-77
2023/05/15 07:33:11;;;;;;;7.88;6.78;;;16.30;68.10;;;;;;5012197;28;20034;-79
2023/05/15 07:35:36;;;;;;;8.45;7.25;;;16.30;68.20;;;;;;5012619;28;20034;-78
2023/05/15 07:38:02;;;;;;;7.63;6.82;;;16.40;68.20;;;;;;5013163;28;20037;-78
2023/05/15 07:40:28;;;;;;;8.25;6.72;;;16.40;68.10;;;;;;4996147;28;20030;-79
2023/05/15 07:42:54;;;;;;;8.25;7.20;;;16.40;68.10;;;;;;5013058;28;20486;-79
2023/05/15 07:45:20;;;;;;;8.32;7.40;;;16.40;68.10;;;;;;5044699;28;20054;-78
2023/05/15 07:47:47;;;;;;;8.52;7.22;;;16.40;68.10;;;;;;5012485;28;20406;-77
2023/05/15 07:50:13;;;;;;;8.32;7.43;;;16.50;68.10;;;;;;5045146;28;20030;-78
2023/05/15 07:52:40;;;;;;;7.97;7.07;;;16.50;68.00;;;;;;5011962;28;20532;-78
2023/05/15 07:55:06;;;;;;;8.88;7.40;;;16.60;68.00;;;;;;5012270;28;20018;-78
2023/05/15 07:57:32;;;;;;;7.95;7.13;;;16.60;67.80;;;;;;5011939;28;20041;-78
2023/05/15 07:59:58;;;;;;;8.30;7.20;;;16.60;67.80;;;;;;5011848;28;20022;-78
2023/05/15 08:02:25;;;;;;;7.57;6.70;;;16.70;67.70;;;;;;5028640;28;20048;-78
2023/05/15 08:04:51;;;;;;;7.47;6.68;;;16.70;67.60;;;;;;5012906;28;20038;-78
2023/05/15 08:07:16;;;;;;;8.40;7.32;;;16.80;67.60;;;;;;5028354;28;20104;-77
2023/05/15 08:09:42;;;;;;;7.85;6.63;;;16.80;67.50;;;;;;5011769;28;20022;-78
2023/05/15 08:12:20;;;;;;;7.60;6.20;;;16.90;67.50;;;;;;4995907;28;20034;-77
2023/05/15 08:14:55;;;;;;;7.20;6.20;;;16.90;67.50;;;;;;5012893;28;20037;-78
2023/05/15 08:17:22;;;;;;;7.70;6.85;;;17.00;67.40;;;;;;5013202;28;20038;-78
2023/05/15 08:19:48;;;;;;;6.95;6.07;;;17.10;67.30;;;;;;5015381;28;20088;-77
2023/05/15 08:22:14;;;;;;;8.73;7.18;;;17.10;67.20;;;;;;5015071;28;20433;-78
2023/05/15 08:24:40;;;;;;;7.55;6.70;;;17.20;67.10;;;;;;5031946;28;20022;-78
2023/05/15 08:27:07;;;;;;;7.57;6.55;;;17.30;67.00;;;;;;4999730;28;20068;-78
2023/05/15 08:29:34;;;;;;;7.80;6.57;;;17.30;66.90;;;;;;5015508;28;20463;-77
2023/05/15 08:32:00;;;;;;;7.25;6.40;;;17.40;66.90;;;;;;5016544;28;20038;-78
2023/05/15 08:34:26;;;;;;;7.93;7.00;;;17.40;66.70;;;;;;5016024;28;20409;-78
2023/05/15 08:36:52;;;;;;;6.63;5.93;;;17.50;66.60;;;;;;5031423;28;20045;-78
2023/05/15 08:39:18;;;;;;;7.57;6.78;;;17.60;66.60;;;;;;5015056;28;20030;-80
2023/05/15 08:41:57;;;;;;;7.97;6.53;;;17.70;66.50;;;;;;4998465;28;20042;-78
2023/05/15 08:44:23;;;;;;;7.57;6.43;;;17.70;66.40;;;;;;5031106;28;20045;-79
2023/05/15 08:46:50;;;;;;;7.47;6.65;;;17.80;66.30;;;;;;4998537;28;20466;-79
2023/05/15 08:49:32;;;;;;;8.05;6.10;;;17.90;66.30;;;;;;5015144;28;20045;-80
2023/05/15 08:51:58;;;;;;;7.57;6.45;;;18.00;66.20;;;;;;5031557;28;20084;-80
2023/05/15 08:54:24;;;;;;;8.20;6.35;;;18.10;66.00;;;;;;5014885;28;20104;-79
2023/05/15 08:56:50;;;;;;;7.55;6.75;;;18.20;66.00;;;;;;5015586;28;20034;-80
2023/05/15 08:59:17;;;;;;;8.35;6.60;;;18.20;65.90;;;;;;4998400;28;20360;-81
2023/05/15 09:01:42;;;;;;;8.43;6.35;;;18.30;65.80;;;;;;5030648;28;20056;-82
2023/05/15 09:04:08;;;;;;;7.68;6.18;;;18.40;65.70;;;;;;5015788;28;20029;-79
2023/05/15 09:06:35;;;;;;;8.13;6.82;;;18.50;65.60;;;;;;4998107;28;20026;-79
2023/05/15 09:09:04;;;;;;;7.63;6.82;;;18.50;65.50;;;;;;4998819;28;20363;-79
2023/05/15 09:11:31;;;;;;;7.78;6.97;;;18.60;65.40;;;;;;5015384;28;20030;-79
2023/05/15 09:14:00;;;;;;;7.25;6.35;;;18.70;65.40;;;;;;5015275;28;20060;-81
2023/05/15 09:16:26;;;;;;;7.68;6.88;;;18.80;65.30;;;;;;5014498;28;20463;-78
2023/05/15 09:18:53;;;;;;;9.55;7.10;;;18.90;65.20;;;;;;5030644;28;20518;-79
2023/05/15 09:21:22;;;;;;;7.75;6.82;;;19.00;65.10;;;;;;5047518;28;20040;-80
2023/05/15 09:23:48;;;;;;;7.57;6.80;;;19.10;65.10;;;;;;5047228;28;20053;-79
2023/05/15 09:26:14;;;;;;;7.85;6.60;;;19.10;64.90;;;;;;5047647;28;20127;-79
2023/05/15 09:28:39;;;;;;;8.30;7.25;;;19.20;64.90;;;;;;5014414;28;20120;-77
2023/05/15 09:31:06;;;;;;;7.43;6.63;;;19.30;64.80;;;;;;5014740;28;20034;-78
2023/05/15 09:33:36;;;;;;;7.85;6.78;;;19.40;64.80;;;;;;5000146;28;20088;-80
2023/05/15 09:36:04;;;;;;;7.53;6.40;;;19.40;64.70;;;;;;5017630;28;20080;-79
2023/05/15 09:38:47;;;;;;;7.68;6.88;;;19.50;64.60;;;;;;5014956;28;20148;-77
2023/05/15 09:41:12;;;;;;;7.72;6.85;;;19.60;64.60;;;;;;5014016;28;20042;-78
2023/05/15 09:43:40;;;;;;;7.75;6.65;;;19.70;64.50;;;;;;5013939;28;20387;-78
2023/05/15 09:46:11;;;;;;;8.32;7.05;;;19.80;64.50;;;;;;5013749;28;20062;-79
2023/05/15 09:48:37;;;;;;;7.72;6.93;;;19.90;64.40;;;;;;4997335;28;20025;-78
2023/05/15 09:51:06;;;;;;;8.02;7.03;;;19.90;64.30;;;;;;5030004;28;20044;-79
2023/05/15 09:53:32;;;;;;;8.07;7.28;;;20.00;64.30;;;;;;5030032;28;20117;-79
2023/05/15 09:55:57;;;;;;;7.50;6.63;;;20.00;64.20;;;;;;5014144;28;20108;-79
2023/05/15 09:58:23;;;;;;;8.27;7.47;;;20.10;64.30;;;;;;4997279;28;20469;-79
2023/05/15 10:00:49;;;;;;;8.40;7.53;;;20.20;64.30;;;;;;4997111;28;20041;-80
2023/05/15 10:03:17;;;;;;;7.45;6.75;;;20.20;64.20;;;;;;5014092;28;20097;-78
2023/05/15 10:05:43;;;;;;;10.35;7.70;;;20.30;64.20;;;;;;5030445;28;20366;-78
2023/05/15 10:08:10;;;;;;;8.25;7.45;;;20.40;64.20;;;;;;5014032;28;20029;-78
2023/05/15 10:10:35;;;;;;;8.13;7.28;;;20.40;64.20;;;;;;5014244;28;20191;-78
2023/05/15 10:13:04;;;;;;;8.40;7.55;;;20.50;64.20;;;;;;5013507;28;20483;-78
2023/05/15 10:15:31;;;;;;;7.97;6.97;;;20.50;64.30;;;;;;5046306;28;20043;-78
2023/05/15 10:17:58;;;;;;;7.68;6.90;;;20.60;64.20;;;;;;4997045;28;20022;-78
2023/05/15 10:20:25;;;;;;;8.60;7.70;;;20.70;64.30;;;;;;5013185;28;20173;-78
2023/05/15 10:22:54;;;;;;;8.40;7.53;;;20.70;64.20;;;;;;5013036;28;20072;-78
2023/05/15 10:25:34;;;;;;;8.25;7.32;;;20.80;64.30;;;;;;5014276;28;20038;-78
2023/05/15 10:28:01;;;;;;;8.38;7.47;;;20.80;64.30;;;;;;5013231;28;20041;-78
2023/05/15 10:30:28;;;;;;;8.23;7.38;;;20.90;64.20;;;;;;4996974;28;20030;-78
2023/05/15 10:32:54;;;;;;;8.13;7.30;;;20.90;64.20;;;;;;5029613;28;20454;-78
2023/05/15 10:35:21;;;;;;;8.13;7.30;;;21.00;64.30;;;;;;5012947;28;20026;-79
2023/05/15 10:37:47;;;;;;;8.18;7.28;;;21.00;64.20;;;;;;4996699;28;20068;-79
2023/05/15 10:40:15;;;;;;;8.68;7.78;;;21.10;64.30;;;;;;5013554;28;20044;-79
2023/05/15 10:42:43;;;;;;;8.63;7.80;;;21.10;64.20;;;;;;5045669;28;20133;-79
2023/05/15 10:45:10;;;;;;;7.85;7.05;;;21.10;64.00;;;;;;5014061;28;20061;-79
2023/05/15 10:47:37;;;;;;;7.75;6.90;;;21.20;64.10;;;;;;5012989;28;20070;-78
2023/05/15 10:50:04;;;;;;;7.93;7.13;;;21.30;64.00;;;;;;5028929;28;20486;-78
2023/05/15 10:52:32;;;;;;;7.47;6.78;;;21.20;63.90;;;;;;5028818;28;20034;-78
2023/05/15 10:54:58;;;;;;;8.00;7.20;;;21.30;63.90;;;;;;5012752;28;20026;-78
2023/05/15 10:57:24;;;;;;;8.13;7.28;;;21.30;63.90;;;;;;4996184;28;20038;-78
2023/05/15 10:59:50;;;;;;;8.50;7.30;;;21.40;63.80;;;;;;4996335;28;20026;-78
2023/05/15 11:02:23;;;;;;;8.00;7.18;;;21.40;63.90;;;;;;4996972;28;20038;-78
2023/05/15 11:05:02;;;;;;;9.13;7.28;;;21.50;63.90;;;;;;5028688;28;20042;-80
2023/05/15 11:07:28;;;;;;;7.50;6.68;;;21.50;63.90;;;;;;5014397;28;20034;-78
2023/05/15 11:09:55;;;;;;;7.68;6.88;;;21.50;63.80;;;;;;5013108;28;20025;-78
2023/05/15 11:12:22;;;;;;;7.65;6.82;;;21.60;63.90;;;;;;5013074;28;20037;-81
2023/05/15 11:14:50;;;;;;;7.45;6.38;;;21.60;63.70;;;;;;5028703;28;20482;-78
2023/05/15 11:17:17;;;;;;;6.90;6.10;;;21.60;63.60;;;;;;5013800;28;20030;-79
2023/05/15 11:19:49;;;;;;;6.88;6.18;;;21.70;63.60;;;;;;5029596;28;20350;-81
2023/05/15 11:22:15;;;;;;;7.80;6.30;;;21.70;63.60;;;;;;5013267;28;20033;-79
2023/05/15 11:24:46;;;;;;;7.13;6.43;;;21.70;63.50;;;;;;5013775;28;20030;-79
2023/05/15 11:27:36;;;;;;;7.13;6.43;;;21.70;63.40;;;;;;5012078;28;20101;-79
2023/05/15 11:30:08;;;;;;;6.70;5.78;;;21.80;63.40;;;;;;5012343;28;20033;-79
2023/05/15 11:32:46;;;;;;;6.05;5.28;;;21.80;63.30;;;;;;5011985;28;20087;-79
2023/05/15 11:35:12;;;;;;;6.50;5.65;;;21.80;63.10;;;;;;5045221;28;20159;-79
2023/05/15 11:37:42;;;;;;;6.38;5.57;;;21.90;63.00;;;;;;5045292;28;20026;-79
2023/05/15 11:40:32;;;;;;;5.95;5.13;;;21.90;63.00;;;;;;5028565;28;20034;-76
2023/05/15 11:43:05;;;;;;;6.30;5.28;;;21.90;62.90;;;;;;5011870;28;20064;-78
2023/05/15 11:45:40;;;;;;;6.65;5.75;;;21.90;62.80;;;;;;5013661;28;20132;-77
2023/05/15 11:48:11;;;;;;;6.30;5.43;;;22.00;62.80;;;;;;5012176;28;20040;-77
2023/05/15 11:50:37;;;;;;;6.05;5.45;;;22.00;62.70;;;;;;5028457;28;20041;-78
2023/05/15 11:53:05;;;;;;;6.55;5.88;;;22.00;62.60;;;;;;4997560;28;20501;-78
2023/05/15 11:55:32;;;;;;;7.10;6.28;;;22.00;62.60;;;;;;5032538;28;20026;-77
2023/05/15 11:57:59;;;;;;;6.63;5.93;;;22.00;62.60;;;;;;5015825;28;20030;-79
2023/05/15 12:00:24;;;;;;;7.05;6.35;;;22.00;62.50;;;;;;5015449;28;20030;-77
2023/05/15 12:02:50;;;;;;;6.53;5.82;;;22.10;62.60;;;;;;5048787;28;20038;-78
2023/05/15 12:05:16;;;;;;;7.00;5.85;;;22.10;62.50;;;;;;5031909;28;20108;-79
2023/05/15 12:07:42;;;;;;;6.45;5.75;;;22.10;62.40;;;;;;4999985;28;20026;-78
2023/05/15 12:10:12;;;;;;;6.50;5.50;;;22.10;62.40;;;;;;5031919;28;20034;-77
2023/05/15 12:12:42;;;;;;;6.70;6.00;;;22.10;62.30;;;;;;5015511;28;20552;-77
2023/05/15 12:15:14;;;;;;;7.10;6.07;;;22.20;62.30;;;;;;5015644;28;20038;-78
2023/05/15 12:17:41;;;;;;;6.47;5.82;;;22.20;62.30;;;;;;5032531;28;20026;-78
2023/05/15 12:20:15;;;;;;;6.70;6.00;;;22.20;62.30;;;;;;5017395;28;20034;-78
2023/05/15 12:22:41;;;;;;;6.88;6.18;;;22.20;62.30;;;;;;5032009;28;20037;-78
2023/05/15 12:25:10;;;;;;;8.00;6.55;;;22.30;62.30;;;;;;5031651;28;20463;-78
2023/05/15 12:27:38;;;;;;;8.38;7.05;;;22.30;62.20;;;;;;5031456;28;20034;-77
2023/05/15 12:30:05;;;;;;;7.03;6.32;;;22.30;62.30;;;;;;5031710;28;20029;-77
2023/05/15 12:32:33;;;;;;;7.88;7.07;;;22.30;62.20;;;;;;5016089;28;20030;-77
2023/05/15 12:34:59;;;;;;;8.02;7.07;;;22.30;62.20;;;;;;5014849;28;20468;-78
2023/05/15 12:37:25;;;;;;;8.10;7.28;;;22.30;62.20;;;;;;5031475;28;20026;-78
2023/05/15 12:39:53;;;;;;;8.50;7.53;;;22.30;62.10;;;;;;5015028;28;20029;-78
2023/05/15 12:42:20;;;;;;;8.50;7.60;;;22.30;62.10;;;;;;5015821;28;20045;-77
2023/05/15 12:44:48;;;;;;;9.25;8.27;;;22.40;62.10;;;;;;5014525;28;20054;-78
2023/05/15 12:47:20;;;;;;;8.93;8.00;;;22.40;62.10;;;;;;5015769;28;20037;-78
2023/05/15 12:49:46;;;;;;;9.00;8.05;;;22.40;62.10;;;;;;5015663;28;20041;-78